createdAt,value
2018-12-08T00:00:47.864Z,27.6
2018-12-08T00:01:39.253Z,27.4
2018-12-08T00:02:28.068Z,27.3
2018-12-08T00:03:18.678Z,26.9
2018-12-08T00:04:08.941Z,27.1
2018-12-08T00:04:59.608Z,27.4
2018-12-08T00:05:49.214Z,27.8
2018-12-08T00:06:40.059Z,27.9
2018-12-08T00:24:51.652Z,28.9
2018-12-08T00:25:41.471Z,28.9
2018-12-08T00:26:32.074Z,29
2018-12-08T00:27:21.794Z,29
2018-12-08T00:28:11.359Z,28.9
2018-12-08T00:29:01.642Z,28.9
2018-12-08T00:29:52.526Z,28.9
2018-12-08T00:30:42.106Z,28.9
2018-12-08T00:31:32.333Z,28.9
2018-12-08T00:32:21.971Z,28.9
2018-12-08T00:33:11.366Z,28.9
2018-12-08T00:34:02.656Z,28.8
2018-12-08T00:34:52.596Z,28.7
2018-12-08T00:35:42.084Z,28.7
2018-12-08T00:36:31.608Z,28.2
2018-12-08T00:37:21.804Z,27.8
2018-12-08T00:38:11.983Z,27.5
2018-12-08T00:39:02.881Z,27.3
2018-12-08T00:39:52.993Z,27
2018-12-08T00:40:43.541Z,26.9
2018-12-08T00:41:32.467Z,27.1
2018-12-08T00:42:22.268Z,27.5
2018-12-08T00:43:11.793Z,27.7
2018-12-08T00:44:02.935Z,27.9
2018-12-08T00:44:52.430Z,27.4
2018-12-08T00:45:42.555Z,27.1
2018-12-08T00:46:33.213Z,27
2018-12-08T00:47:22.978Z,27.1
2018-12-08T00:48:12.413Z,27.3
2018-12-08T00:49:03.274Z,27.5
2018-12-08T00:49:51.778Z,27.7
2018-12-08T00:51:33.427Z,27.9
2018-12-08T00:52:22.681Z,28
2018-12-08T00:53:13.117Z,28.1
2018-12-08T00:54:03.382Z,28.2
2018-12-08T00:54:53.740Z,28.3
2018-12-08T00:55:43.317Z,28.3
2018-12-08T00:56:33.280Z,28.4
2018-12-08T00:57:23.077Z,28.5
2018-12-08T00:58:14.025Z,28.6
2018-12-08T00:59:03.687Z,28.6
2018-12-08T00:59:54.087Z,28.6
2018-12-08T01:00:43.762Z,28.7
2018-12-08T01:01:33.005Z,28.7
2018-12-08T01:02:25.172Z,28.8
2018-12-08T01:03:14.282Z,28.8
2018-12-08T01:04:03.046Z,28.9
2018-12-08T01:04:54.494Z,28.9
2018-12-08T01:05:44.089Z,28.9
2018-12-08T01:06:33.640Z,28.9
2018-12-08T01:07:24.551Z,28.9
2018-12-08T01:08:14.075Z,29
2018-12-08T01:09:04.094Z,29.1
2018-12-08T01:09:54.735Z,29.1
2018-12-08T01:10:45.538Z,29.1
2018-12-08T01:11:34.004Z,29.1
2018-12-08T01:12:24.259Z,29.1
2018-12-08T01:13:15.484Z,29
2018-12-08T01:14:04.464Z,29
2018-12-08T01:14:54.558Z,29
2018-12-08T01:15:45.396Z,28.9
2018-12-08T01:16:34.966Z,28.9
2018-12-08T01:17:25.343Z,28.9
2018-12-08T01:18:14.481Z,28.8
2018-12-08T01:19:05.606Z,28.8
2018-12-08T01:19:55.541Z,28.4
2018-12-08T01:20:45.693Z,27.9
2018-12-08T01:21:35.568Z,27.6
2018-12-08T01:22:25.678Z,27.4
2018-12-08T01:23:15.891Z,27.3
2018-12-08T01:24:05.630Z,26.9
2018-12-08T01:24:54.737Z,26.9
2018-12-08T01:25:45.650Z,27.1
2018-12-08T01:26:36.423Z,27.4
2018-12-08T01:27:25.073Z,27.7
2018-12-08T01:28:16.293Z,27.9
2018-12-08T01:29:05.747Z,27.4
2018-12-08T01:29:55.517Z,27.1
2018-12-08T01:30:46.212Z,27
2018-12-08T01:31:34.390Z,27
2018-12-08T01:32:25.425Z,27.2
2018-12-08T01:33:16.672Z,27.4
2018-12-08T01:34:05.847Z,27.6
2018-12-08T01:34:55.718Z,27.8
2018-12-08T01:36:35.312Z,27.9
2018-12-08T01:37:24.144Z,28
2018-12-08T01:38:16.211Z,28.1
2018-12-08T01:39:06.451Z,28.2
2018-12-08T01:39:56.451Z,28.3
2018-12-08T01:40:46.068Z,28.3
2018-12-08T01:41:37.569Z,28.4
2018-12-08T01:42:26.506Z,28.4
2018-12-08T01:43:17.003Z,28.5
2018-12-08T01:44:06.756Z,28.5
2018-12-08T01:44:57.360Z,28.6
2018-12-08T01:45:46.213Z,28.6
2018-12-08T01:46:36.621Z,28.6
2018-12-08T01:47:26.438Z,28.7
2018-12-08T01:48:16.567Z,28.8
2018-12-08T01:49:06.106Z,28.8
2018-12-08T01:49:56.357Z,28.8
2018-12-08T01:50:47.460Z,28.8
2018-12-08T01:51:37.322Z,28.9
2018-12-08T01:52:26.758Z,28.9
2018-12-08T01:53:17.345Z,28.9
2018-12-08T01:54:07.447Z,28.9
2018-12-08T01:54:57.860Z,28.8
2018-12-08T01:55:46.280Z,28.7
2018-12-08T01:56:37.692Z,28.4
2018-12-08T01:57:27.940Z,28.3
2018-12-08T01:58:17.530Z,28
2018-12-08T01:59:57.806Z,27.6
2018-12-08T02:00:47.614Z,27.6
2018-12-08T02:01:37.489Z,27.6
2018-12-08T02:02:27.999Z,27.8
2018-12-08T02:03:17.869Z,27.9
2018-12-08T02:04:07.694Z,28.1
2018-12-08T02:04:58.998Z,28.4
2018-12-08T02:05:47.143Z,28.2
2018-12-08T02:06:39.639Z,27.6
2018-12-08T02:07:28.331Z,27.1
2018-12-08T02:08:17.664Z,26.8
2018-12-08T02:09:07.728Z,26.9
2018-12-08T02:09:58.196Z,27.1
2018-12-08T02:10:48.115Z,27.4
2018-12-08T02:11:38.448Z,27.6
2018-12-08T02:12:28.946Z,27.7
2018-12-08T02:14:08.905Z,27.9
2018-12-08T02:14:58.638Z,28.1
2018-12-08T02:15:47.371Z,28.1
2018-12-08T02:16:39.138Z,28.3
2018-12-08T02:17:28.246Z,28.3
2018-12-08T02:18:18.058Z,28.4
2018-12-08T02:19:08.407Z,28.5
2018-12-08T02:19:57.460Z,28.6
2018-12-08T02:20:48.638Z,28.6
2018-12-08T02:21:38.053Z,28.7
2018-12-08T02:22:28.274Z,28.8
2018-12-08T02:23:18.764Z,28.8
2018-12-08T02:24:08.822Z,28.8
2018-12-08T02:24:58.894Z,28.9
2018-12-08T02:25:48.131Z,28.9
2018-12-08T02:26:39.046Z,28.9
2018-12-08T02:27:29.262Z,28.8
2018-12-08T02:28:19.032Z,28.8
2018-12-08T02:29:08.876Z,28.9
2018-12-08T02:29:59.326Z,28.9
2018-12-08T02:30:49.261Z,28.8
2018-12-08T02:31:39.692Z,28.8
2018-12-08T02:32:30.299Z,28.8
2018-12-08T02:33:23.106Z,28.7
2018-12-08T02:34:10.327Z,28.6
2018-12-08T02:34:59.100Z,28.1
2018-12-08T02:35:49.384Z,27.7
2018-12-08T02:36:40.386Z,27.4
2018-12-08T02:37:30.233Z,27.2
2018-12-08T02:38:19.293Z,26.9
2018-12-08T02:39:10.153Z,26.9
2018-12-08T02:40:00.168Z,27
2018-12-08T02:40:51.400Z,27.3
2018-12-08T02:41:40.296Z,27.6
2018-12-08T02:42:29.854Z,27.9
2018-12-08T02:43:20.903Z,27.4
2018-12-08T02:44:11.535Z,27.1
2018-12-08T02:45:00.972Z,26.9
2018-12-08T02:45:51.620Z,27
2018-12-08T02:46:39.881Z,27.2
2018-12-08T02:47:29.960Z,27.4
2018-12-08T02:48:21.224Z,27.6
2018-12-08T02:49:11.111Z,27.7
2018-12-08T02:50:00.484Z,27.9
2018-12-08T02:50:51.105Z,27.9
2018-12-08T02:51:41.400Z,28
2018-12-08T02:52:31.803Z,28.1
2018-12-08T02:53:21.329Z,28.2
2018-12-08T02:54:11.834Z,28.3
2018-12-08T02:55:01.747Z,28.4
2018-12-08T02:55:51.982Z,28.4
2018-12-08T02:56:42.046Z,28.4
2018-12-08T02:57:31.556Z,28.6
2018-12-08T02:58:22.051Z,28.6
2018-12-08T02:59:11.494Z,28.6
2018-12-08T03:00:02.206Z,28.7
2018-12-08T03:00:51.254Z,28.8
2018-12-08T03:01:41.574Z,28.8
2018-12-08T03:02:31.364Z,28.8
2018-12-08T03:03:22.293Z,28.8
2018-12-08T03:04:13.090Z,28.9
2018-12-08T03:05:02.675Z,28.9
2018-12-08T03:05:52.611Z,28.9
2018-12-08T03:06:41.756Z,28.9
2018-12-08T03:07:31.887Z,29
2018-12-08T03:08:21.910Z,28.9
2018-12-08T03:09:13.367Z,28.9
2018-12-08T03:10:02.180Z,28.9
2018-12-08T03:10:52.546Z,28.9
2018-12-08T03:11:42.034Z,28.9
2018-12-08T03:12:32.704Z,28.8
2018-12-08T03:13:23.021Z,28.8
2018-12-08T03:14:12.465Z,28.7
2018-12-08T03:15:03.051Z,28.6
2018-12-08T03:15:52.935Z,28.1
2018-12-08T03:16:43.227Z,27.7
2018-12-08T03:17:33.877Z,27.4
2018-12-08T03:18:23.487Z,27.3
2018-12-08T03:19:13.601Z,27.1
2018-12-08T03:20:03.527Z,26.8
2018-12-08T03:20:53.237Z,26.9
2018-12-08T03:21:43.476Z,27.1
2018-12-08T03:22:34.336Z,27.4
2018-12-08T03:24:13.654Z,27.6
2018-12-08T03:25:03.444Z,27.2
2018-12-08T03:25:54.348Z,27
2018-12-08T03:26:43.789Z,26.9
2018-12-08T03:27:34.700Z,27.1
2018-12-08T03:28:24.487Z,27.3
2018-12-08T03:29:13.495Z,27.5
2018-12-08T03:30:03.153Z,27.6
2018-12-08T03:30:56.087Z,27.8
2018-12-08T03:31:44.638Z,27.9
2018-12-08T03:32:33.991Z,28
2018-12-08T03:33:24.490Z,28.1
2018-12-08T03:34:14.483Z,28.1
2018-12-08T03:35:03.923Z,28.2
2018-12-08T03:35:54.183Z,28.3
2018-12-08T03:36:43.755Z,28.3
2018-12-08T03:37:34.036Z,28.4
2018-12-08T03:38:24.955Z,28.4
2018-12-08T03:39:15.248Z,28.5
2018-12-08T03:40:05.393Z,28.6
2018-12-08T03:40:55.671Z,28.6
2018-12-08T03:41:44.077Z,28.6
2018-12-08T03:42:33.343Z,28.7
2018-12-08T03:43:24.213Z,28.7
2018-12-08T03:44:14.922Z,28.8
2018-12-08T03:45:04.452Z,28.8
2018-12-08T03:45:54.940Z,28.8
2018-12-08T03:46:44.743Z,28.8
2018-12-08T03:47:34.915Z,28.9
2018-12-08T03:48:24.799Z,28.9
2018-12-08T03:49:15.987Z,28.9
2018-12-08T03:50:05.298Z,28.9
2018-12-08T03:50:55.665Z,29
2018-12-08T03:51:45.791Z,29
2018-12-08T03:52:36.058Z,29
2018-12-08T03:53:25.448Z,28.9
2018-12-08T03:54:15.815Z,28.9
2018-12-08T03:55:05.023Z,28.9
2018-12-08T03:55:55.646Z,28.9
2018-12-08T03:56:44.346Z,28.9
2018-12-08T03:57:35.913Z,28.9
2018-12-08T03:58:25.380Z,28.8
2018-12-08T03:59:15.828Z,28.8
2018-12-08T04:00:06.748Z,28.7
2018-12-08T04:00:55.012Z,28.4
2018-12-08T04:01:46.331Z,27.9
2018-12-08T04:02:36.773Z,27.6
2018-12-08T04:03:25.781Z,27.4
2018-12-08T04:04:16.706Z,27.2
2018-12-08T04:05:06.484Z,27
2018-12-08T04:05:56.598Z,26.8
2018-12-08T04:06:45.556Z,26.9
2018-12-08T04:07:37.008Z,27.1
2018-12-08T04:08:26.142Z,27.4
2018-12-08T04:09:17.312Z,27.7
2018-12-08T04:10:08.701Z,27.9
2018-12-08T04:10:57.407Z,27.3
2018-12-08T04:11:47.487Z,27.1
2018-12-08T04:12:36.938Z,26.9
2018-12-08T04:13:26.502Z,26.9
2018-12-08T04:14:16.027Z,27.1
2018-12-08T04:15:07.193Z,27.4
2018-12-08T04:15:56.897Z,27.6
2018-12-08T04:16:47.025Z,27.7
2018-12-08T04:18:27.148Z,27.9
2018-12-08T04:19:17.100Z,27.9
2018-12-08T04:20:07.114Z,28.1
2018-12-08T04:20:57.904Z,28.1
2018-12-08T04:21:47.857Z,28.2
2018-12-08T04:22:38.224Z,28.3
2018-12-08T04:23:27.780Z,28.3
2018-12-08T04:24:18.632Z,28.4
2018-12-08T04:25:07.794Z,28.4
2018-12-08T04:25:58.351Z,28.4
2018-12-08T04:26:47.390Z,28.5
2018-12-08T04:27:37.151Z,28.4
2018-12-08T04:28:27.737Z,28.3
2018-12-08T04:29:17.659Z,28.1
2018-12-08T04:30:07.932Z,27.9
2018-12-08T04:30:59.731Z,27.7
2018-12-08T04:31:49.187Z,27.4
2018-12-08T04:32:37.549Z,27.4
2018-12-08T04:33:28.149Z,27.3
2018-12-08T04:34:18.241Z,27.3
2018-12-08T04:35:08.682Z,27.5
2018-12-08T04:36:00.336Z,27.6
2018-12-08T04:54:07.680Z,28.4
2018-12-08T04:54:57.549Z,28.5
2018-12-08T04:55:46.757Z,28.6
2018-12-08T04:56:36.855Z,28.6
2018-12-08T04:57:26.933Z,28.7
2018-12-08T04:58:16.921Z,28.7
2018-12-08T04:59:07.541Z,28.8
2018-12-08T04:59:57.014Z,28.8
2018-12-08T05:00:47.643Z,28.8
2018-12-08T05:01:37.234Z,28.8
2018-12-08T05:02:28.187Z,28.8
2018-12-08T05:03:16.964Z,28.8
2018-12-08T05:04:07.236Z,28.8
2018-12-08T05:04:57.218Z,28.8
2018-12-08T05:05:47.679Z,28.8
2018-12-08T05:06:37.739Z,28.8
2018-12-08T05:07:28.588Z,28.7
2018-12-08T05:08:17.844Z,28.6
2018-12-08T05:09:06.661Z,28.6
2018-12-08T05:09:58.173Z,28.1
2018-12-08T05:10:48.016Z,27.6
2018-12-08T05:11:38.171Z,27.3
2018-12-08T05:12:28.656Z,27.1
2018-12-08T05:13:18.210Z,26.8
2018-12-08T05:14:08.232Z,26.8
2018-12-08T05:14:58.596Z,26.9
2018-12-08T05:15:48.151Z,27.3
2018-12-08T05:16:38.696Z,27.5
2018-12-08T05:17:27.625Z,27.9
2018-12-08T05:18:17.963Z,27.3
2018-12-08T05:19:09.393Z,27
2018-12-08T05:19:58.943Z,26.9
2018-12-08T05:20:49.562Z,26.9
2018-12-08T05:21:39.011Z,27.1
2018-12-08T05:22:29.095Z,27.3
2018-12-08T05:23:18.685Z,27.4
2018-12-08T05:24:08.642Z,27.6
2018-12-08T05:24:58.830Z,27.7
2018-12-08T05:26:39.223Z,27.9
2018-12-08T05:27:28.903Z,28
2018-12-08T05:28:18.926Z,28.1
2018-12-08T05:29:09.275Z,28.1
2018-12-08T05:29:59.127Z,28.2
2018-12-08T05:30:49.724Z,28.3
2018-12-08T05:31:39.445Z,28.4
2018-12-08T05:32:29.605Z,28.4
2018-12-08T05:33:19.265Z,28.4
2018-12-08T05:34:09.348Z,28.5
2018-12-08T05:34:59.449Z,28.5
2018-12-08T05:35:48.940Z,28.6
2018-12-08T05:36:40.117Z,28.6
2018-12-08T05:37:29.980Z,28.7
2018-12-08T05:38:19.497Z,28.8
2018-12-08T05:39:10.042Z,28.8
2018-12-08T05:40:00.178Z,28.8
2018-12-08T05:40:49.877Z,28.8
2018-12-08T05:41:39.337Z,28.9
2018-12-08T05:42:29.775Z,28.9
2018-12-08T05:43:19.495Z,28.9
2018-12-08T05:44:10.460Z,28.9
2018-12-08T05:45:00.151Z,28.9
2018-12-08T05:45:49.932Z,28.9
2018-12-08T05:46:40.387Z,29
2018-12-08T05:47:30.585Z,28.9
2018-12-08T05:48:20.574Z,28.9
2018-12-08T05:49:11.078Z,28.9
2018-12-08T05:50:00.682Z,28.9
2018-12-08T05:50:51.195Z,28.9
2018-12-08T05:51:41.037Z,28.8
2018-12-08T05:52:30.903Z,28.8
2018-12-08T05:53:21.737Z,28.8
2018-12-08T05:54:10.987Z,28.6
2018-12-08T05:55:00.569Z,28.6
2018-12-08T05:55:51.359Z,28
2018-12-08T05:56:41.226Z,27.6
2018-12-08T05:57:31.294Z,27.3
2018-12-08T05:58:20.942Z,27.1
2018-12-08T05:59:10.779Z,26.9
2018-12-08T06:00:01.799Z,26.8
2018-12-08T06:00:51.151Z,26.9
2018-12-08T06:01:42.885Z,27.3
2018-12-08T06:02:31.529Z,27.3
2018-12-08T06:03:22.139Z,27
2018-12-08T06:04:11.647Z,26.9
2018-12-08T06:05:01.174Z,26.8
2018-12-08T06:05:51.456Z,26.9
2018-12-08T06:06:42.316Z,27.1
2018-12-08T06:07:31.596Z,27.3
2018-12-08T06:08:21.661Z,27.4
2018-12-08T06:09:12.279Z,27.6
2018-12-08T06:10:02.311Z,27.7
2018-12-08T06:10:51.623Z,27.8
2018-12-08T06:11:43.101Z,27.9
2018-12-08T06:12:32.515Z,27.9
2018-12-08T06:13:21.814Z,28
2018-12-08T06:14:12.056Z,28.1
2018-12-08T06:15:03.016Z,28.1
2018-12-08T06:15:52.168Z,28.3
2018-12-08T06:16:42.793Z,28.3
2018-12-08T06:17:32.863Z,28.3
2018-12-08T06:18:23.173Z,28.4
2018-12-08T06:19:11.828Z,28.4
2018-12-08T06:20:02.568Z,28.4
2018-12-08T06:20:52.521Z,28.5
2018-12-08T06:21:43.787Z,28.6
2018-12-08T06:22:33.053Z,28.6
2018-12-08T06:23:22.390Z,28.6
2018-12-08T06:24:11.648Z,28.6
2018-12-08T06:25:03.030Z,28.7
2018-12-08T06:25:53.677Z,28.8
2018-12-08T06:26:43.137Z,28.8
2018-12-08T06:27:33.800Z,28.8
2018-12-08T06:28:22.469Z,28.8
2018-12-08T06:29:13.038Z,28.8
2018-12-08T06:30:02.856Z,28.9
2018-12-08T06:30:53.868Z,28.9
2018-12-08T06:31:43.347Z,28.9
2018-12-08T06:32:33.539Z,28.9
2018-12-08T06:33:22.835Z,28.9
2018-12-08T06:34:13.402Z,29
2018-12-08T06:35:03.204Z,28.9
2018-12-08T06:35:54.072Z,28.9
2018-12-08T06:36:44.235Z,28.9
2018-12-08T06:37:33.629Z,28.9
2018-12-08T06:38:25.967Z,28.9
2018-12-08T06:39:14.292Z,28.8
2018-12-08T06:40:04.884Z,28.8
2018-12-08T06:40:54.397Z,28.8
2018-12-08T06:41:42.824Z,28.7
2018-12-08T06:42:33.546Z,28.6
2018-12-08T06:43:23.532Z,28.2
2018-12-08T06:44:14.116Z,27.7
2018-12-08T06:45:05.031Z,27.3
2018-12-08T06:45:54.249Z,27.3
2018-12-08T06:46:45.144Z,27.3
2018-12-08T06:47:34.037Z,27.4
2018-12-08T06:48:24.435Z,27.6
2018-12-08T06:49:14.559Z,27.4
2018-12-08T06:50:04.748Z,27.1
2018-12-08T06:50:54.096Z,27.1
2018-12-08T06:51:45.456Z,27
2018-12-08T06:52:34.791Z,27.1
2018-12-08T06:53:24.565Z,27.2
2018-12-08T06:54:15.336Z,27.4
2018-12-08T06:55:04.910Z,27.5
2018-12-08T06:55:54.617Z,27.7
2018-12-08T06:56:44.518Z,27.6
2018-12-08T06:57:34.623Z,27.4
2018-12-08T06:58:25.671Z,27.3
2018-12-08T06:59:15.871Z,27
2018-12-08T07:00:04.669Z,26.8
2018-12-08T07:00:54.586Z,26.6
2018-12-08T07:01:45.437Z,26.5
2018-12-08T07:02:34.875Z,26.5
2018-12-08T07:03:26.046Z,26.7
2018-12-08T07:04:15.813Z,26.9
2018-12-08T07:05:05.563Z,27.1
2018-12-08T07:05:55.625Z,27.3
2018-12-08T07:06:46.013Z,27.5
2018-12-08T07:07:35.685Z,27.8
2018-12-08T07:08:26.687Z,28.4
2018-12-08T07:10:05.973Z,27.1
2018-12-08T07:10:56.806Z,26.7
2018-12-08T07:11:46.349Z,26.4
2018-12-08T07:12:39.213Z,26.5
2018-12-08T07:13:25.515Z,26.8
2018-12-08T07:14:16.461Z,27
2018-12-08T07:15:06.857Z,27.2
2018-12-08T07:15:57.135Z,27.4
2018-12-08T07:16:45.597Z,27.5
2018-12-08T07:17:35.330Z,27.6
2018-12-08T07:18:28.986Z,27.8
2018-12-08T07:20:06.934Z,27.9
2018-12-08T07:20:56.040Z,28
2018-12-08T07:21:47.214Z,28.1
2018-12-08T07:22:36.682Z,28.2
2018-12-08T07:23:27.326Z,28.3
2018-12-08T07:24:16.507Z,28.3
2018-12-08T07:25:06.866Z,28.4
2018-12-08T07:25:58.107Z,28.4
2018-12-08T07:26:46.844Z,28.5
2018-12-08T07:27:36.777Z,28.6
2018-12-08T07:28:29.914Z,28.6
2018-12-08T07:29:18.239Z,28.6
2018-12-08T07:30:07.329Z,28.6
2018-12-08T07:30:58.051Z,28.6
2018-12-08T07:31:47.916Z,28.6
2018-12-08T07:32:45.976Z,28.7
2018-12-08T07:33:26.841Z,28.8
2018-12-08T07:34:17.516Z,28.8
2018-12-08T07:35:07.316Z,28.8
2018-12-08T07:35:57.076Z,28.8
2018-12-08T07:36:47.984Z,28.8
2018-12-08T07:37:37.392Z,28.8
2018-12-08T07:38:28.356Z,28.4
2018-12-08T07:40:07.924Z,27.4
2018-12-08T07:40:57.406Z,27.3
2018-12-08T07:41:48.604Z,27.1
2018-12-08T07:42:37.773Z,27
2018-12-08T07:43:27.585Z,26.9
2018-12-08T07:44:19.273Z,26.9
2018-12-08T07:45:08.786Z,26.9
2018-12-08T07:45:58.838Z,26.8
2018-12-08T07:46:48.885Z,26.4
2018-12-08T07:47:39.043Z,26.4
2018-12-08T07:48:28.448Z,26.6
2018-12-08T07:49:18.033Z,26.8
2018-12-08T07:50:08.375Z,27.2
2018-12-08T07:50:58.423Z,27.4
2018-12-08T07:51:48.702Z,26.9
2018-12-08T07:52:38.561Z,26.6
2018-12-08T07:53:29.692Z,26.4
2018-12-08T07:54:18.397Z,26.5
2018-12-08T07:55:09.000Z,26.7
2018-12-08T07:55:58.305Z,26.9
2018-12-08T07:56:49.609Z,27.1
2018-12-08T07:57:38.816Z,27.3
2018-12-08T07:58:28.869Z,27.4
2018-12-08T07:59:18.659Z,27.6
2018-12-08T08:00:11.560Z,27.6
2018-12-08T08:00:59.417Z,27.8
2018-12-08T08:02:39.264Z,27.9
2018-12-08T08:03:28.371Z,27.9
2018-12-08T08:04:19.228Z,28.1
2018-12-08T08:05:10.807Z,28.1
2018-12-08T08:06:00.331Z,28.3
2018-12-08T08:06:50.565Z,28.3
2018-12-08T08:07:40.321Z,28.4
2018-12-08T08:08:30.371Z,28.4
2018-12-08T08:09:20.210Z,28.5
2018-12-08T08:10:08.982Z,28.6
2018-12-08T08:11:01.192Z,28.6
2018-12-08T08:11:50.884Z,28.6
2018-12-08T08:12:40.953Z,28.6
2018-12-08T08:13:30.423Z,28.6
2018-12-08T08:14:20.557Z,28.7
2018-12-08T08:15:10.665Z,28.8
2018-12-08T08:16:00.115Z,28.8
2018-12-08T08:16:51.295Z,28.9
2018-12-08T08:17:41.259Z,28.9
2018-12-08T08:18:30.753Z,28.9
2018-12-08T08:19:21.375Z,28.9
2018-12-08T08:20:10.445Z,28.4
2018-12-08T08:21:51.010Z,27.4
2018-12-08T08:22:41.887Z,27.3
2018-12-08T08:23:31.435Z,27.1
2018-12-08T08:24:20.475Z,27
2018-12-08T08:25:11.227Z,26.9
2018-12-08T08:26:00.824Z,26.9
2018-12-08T08:26:51.447Z,26.9
2018-12-08T08:27:41.644Z,26.8
2018-12-08T08:28:31.344Z,26.7
2018-12-08T08:29:21.230Z,26.3
2018-12-08T08:30:11.297Z,26.4
2018-12-08T08:31:01.091Z,26.6
2018-12-08T08:31:53.496Z,26.8
2018-12-08T08:32:41.194Z,27.3
2018-12-08T08:33:32.394Z,27.8
2018-12-08T08:34:21.617Z,27
2018-12-08T08:35:12.064Z,26.6
2018-12-08T08:36:01.774Z,26.4
2018-12-08T08:36:51.726Z,26.4
2018-12-08T08:37:42.434Z,26.6
2018-12-08T08:38:32.536Z,26.8
2018-12-08T08:39:21.421Z,27.1
2018-12-08T08:40:12.641Z,27.3
2018-12-08T08:41:02.041Z,27.4
2018-12-08T08:41:51.269Z,27.5
2018-12-08T08:42:41.846Z,27.6
2018-12-08T08:43:32.179Z,27.7
2018-12-08T08:45:12.063Z,27.9
2018-12-08T08:46:02.974Z,27.9
2018-12-08T08:46:52.191Z,28.1
2018-12-08T08:47:42.839Z,28.1
2018-12-08T08:48:33.428Z,28.2
2018-12-08T08:49:23.243Z,28.3
2018-12-08T08:50:15.311Z,28.3
2018-12-08T08:51:02.991Z,28.4
2018-12-08T08:51:52.785Z,28.4
2018-12-08T08:52:43.127Z,28.5
2018-12-08T09:08:29.942Z,26.9
2018-12-08T09:09:20.725Z,26.8
2018-12-08T09:10:10.127Z,26.8
2018-12-08T09:10:59.437Z,26.7
2018-12-08T09:11:50.337Z,26.6
2018-12-08T09:12:39.277Z,26.2
2018-12-08T09:13:30.679Z,26.3
2018-12-08T09:14:24.397Z,26.5
2018-12-08T09:15:09.458Z,26.8
2018-12-08T09:16:00.108Z,27.4
2018-12-08T09:16:50.790Z,27.3
2018-12-08T09:17:40.580Z,26.8
2018-12-08T09:18:30.932Z,26.5
2018-12-08T09:19:20.279Z,26.4
2018-12-08T09:20:10.179Z,26.4
2018-12-08T09:21:00.695Z,26.6
2018-12-08T09:21:50.453Z,26.9
2018-12-08T09:22:39.471Z,27.1
2018-12-08T09:23:30.937Z,27.3
2018-12-08T09:24:20.955Z,27.4
2018-12-08T09:25:10.977Z,27.5
2018-12-08T09:26:01.549Z,27.6
2018-12-08T09:26:51.077Z,27.8
2018-12-08T09:28:31.716Z,27.9
2018-12-08T09:29:21.210Z,28
2018-12-08T09:30:10.868Z,28.1
2018-12-08T09:31:00.116Z,28.1
2018-12-08T09:31:50.737Z,28.2
2018-12-08T09:32:40.448Z,28.3
2018-12-08T09:33:32.018Z,28.3
2018-12-08T09:34:21.546Z,28.4
2018-12-08T09:35:11.466Z,28.4
2018-12-08T09:36:01.948Z,28.4
2018-12-08T09:36:51.848Z,28.5
2018-12-08T09:37:41.133Z,28.6
2018-12-08T09:38:32.003Z,28.6
2018-12-08T09:39:22.170Z,28.6
2018-12-08T09:40:11.458Z,28.6
2018-12-08T09:41:02.413Z,28.6
2018-12-08T09:41:52.641Z,28.7
2018-12-08T09:42:41.703Z,28.8
2018-12-08T09:43:32.503Z,28.8
2018-12-08T09:44:22.300Z,28.8
2018-12-08T09:45:11.803Z,28.8
2018-12-08T09:46:03.193Z,28.8
2018-12-08T09:46:51.416Z,28.8
2018-12-08T09:47:42.237Z,28.1
2018-12-08T09:48:32.008Z,27.6
2018-12-08T09:49:22.408Z,27.3
2018-12-08T09:50:13.009Z,27.1
2018-12-08T09:51:02.997Z,27
2018-12-08T09:51:51.737Z,26.9
2018-12-08T09:52:41.840Z,26.9
2018-12-08T09:53:32.900Z,26.8
2018-12-08T09:54:23.510Z,26.8
2018-12-08T09:55:13.410Z,26.7
2018-12-08T09:56:04.252Z,26.3
2018-12-08T09:56:52.883Z,26.3
2018-12-08T09:57:43.185Z,26.4
2018-12-08T09:58:33.377Z,26.7
2018-12-08T09:59:23.837Z,27
2018-12-08T10:00:13.665Z,27.4
2018-12-08T10:01:03.785Z,26.8
2018-12-08T10:01:53.742Z,26.5
2018-12-08T10:02:43.460Z,26.4
2018-12-08T10:03:32.529Z,26.4
2018-12-08T10:04:22.932Z,26.4
2018-12-08T10:05:12.839Z,26.4
2018-12-08T10:06:03.912Z,26.3
2018-12-08T10:06:52.886Z,26.2
2018-12-08T10:07:43.868Z,26.1
2018-12-08T10:08:34.005Z,25.9
2018-12-08T10:09:24.471Z,25.9
2018-12-08T10:10:14.006Z,25.9
2018-12-08T10:11:04.509Z,25.9
2018-12-08T10:11:53.866Z,26.3
2018-12-08T10:12:43.757Z,26.6
2018-12-08T10:13:33.593Z,26.8
2018-12-08T10:14:25.061Z,27
2018-12-08T10:15:13.904Z,27.7
2018-12-08T10:16:04.857Z,27.2
2018-12-08T10:16:54.525Z,26.6
2018-12-08T10:17:45.086Z,26.3
2018-12-08T10:18:34.664Z,26.1
2018-12-08T10:19:25.014Z,26.1
2018-12-08T10:20:14.716Z,26.3
2018-12-08T10:21:04.558Z,26.6
2018-12-08T10:21:54.780Z,26.8
2018-12-08T10:22:45.447Z,27
2018-12-08T10:23:34.714Z,27.1
2018-12-08T10:24:24.759Z,27.3
2018-12-08T10:25:15.528Z,27.4
2018-12-08T10:26:05.112Z,27.6
2018-12-08T10:26:54.963Z,27.7
2018-12-08T10:27:46.694Z,27.8
2018-12-08T10:28:35.576Z,27.9
2018-12-08T10:29:23.951Z,27.9
2018-12-08T10:30:15.564Z,28.1
2018-12-08T10:31:04.888Z,28.1
2018-12-08T10:31:55.473Z,28.2
2018-12-08T10:32:45.279Z,28.3
2018-12-08T10:33:38.163Z,28.3
2018-12-08T10:34:25.481Z,28.4
2018-12-08T10:35:16.109Z,28.4
2018-12-08T10:36:05.798Z,28.5
2018-12-08T10:36:56.127Z,28.4
2018-12-08T10:37:46.178Z,28.4
2018-12-08T10:38:36.497Z,28.6
2018-12-08T10:39:26.334Z,28.6
2018-12-08T10:40:16.947Z,28.7
2018-12-08T10:41:06.733Z,28.8
2018-12-08T10:41:56.465Z,28.8
2018-12-08T10:42:46.500Z,28.8
2018-12-08T10:43:36.007Z,28.9
2018-12-08T10:44:25.802Z,28.6
2018-12-08T10:45:16.240Z,27.9
2018-12-08T10:46:06.462Z,27.4
2018-12-08T10:46:56.692Z,27.2
2018-12-08T10:47:46.409Z,27
2018-12-08T10:48:36.280Z,26.9
2018-12-08T10:49:26.052Z,26.9
2018-12-08T10:50:17.208Z,26.8
2018-12-08T10:51:07.059Z,26.8
2018-12-08T10:51:57.241Z,26.7
2018-12-08T10:52:46.964Z,26.5
2018-12-08T10:53:37.599Z,26.2
2018-12-08T10:54:28.249Z,26.3
2018-12-08T10:55:16.970Z,26.6
2018-12-08T10:56:07.479Z,27
2018-12-08T10:56:56.911Z,27.4
2018-12-08T10:57:47.586Z,26.7
2018-12-08T10:58:36.764Z,26.4
2018-12-08T10:59:27.641Z,26.3
2018-12-08T11:00:17.825Z,26.3
2018-12-08T11:01:08.624Z,26.4
2018-12-08T11:01:57.925Z,26.8
2018-12-08T11:02:48.401Z,26.9
2018-12-08T11:03:37.923Z,27.1
2018-12-08T11:04:28.502Z,27.3
2018-12-08T11:05:17.258Z,27.4
2018-12-08T11:06:08.303Z,27.6
2018-12-08T11:06:57.118Z,27.6
2018-12-08T11:07:46.802Z,27.8
2018-12-08T11:09:27.830Z,27.9
2018-12-08T11:10:17.955Z,28.1
2018-12-08T11:11:08.525Z,28.1
2018-12-08T11:11:56.902Z,28.2
2018-12-08T11:12:48.395Z,28.3
2018-12-08T11:13:37.130Z,28.3
2018-12-08T11:14:27.909Z,28.4
2018-12-08T11:15:18.236Z,28.4
2018-12-08T11:16:08.829Z,28.4
2018-12-08T11:16:58.421Z,28.4
2018-12-08T11:17:48.596Z,28.4
2018-12-08T11:18:38.005Z,28.5
2018-12-08T11:19:27.148Z,28.6
2018-12-08T11:20:18.208Z,28.7
2018-12-08T11:21:09.438Z,28.8
2018-12-08T11:21:58.394Z,28.8
2018-12-08T11:22:48.700Z,28.8
2018-12-08T11:23:40.863Z,28.8
2018-12-08T11:24:28.062Z,28.1
2018-12-08T11:25:18.621Z,27.6
2018-12-08T11:26:08.932Z,27.3
2018-12-08T11:26:59.819Z,27.1
2018-12-08T11:27:48.557Z,26.9
2018-12-08T11:28:39.894Z,26.9
2018-12-08T11:29:29.589Z,26.8
2018-12-08T11:30:20.019Z,26.8
2018-12-08T11:31:08.627Z,26.8
2018-12-08T11:32:00.189Z,26.8
2018-12-08T11:32:49.629Z,26.3
2018-12-08T11:33:40.019Z,26.3
2018-12-08T11:34:29.991Z,26.4
2018-12-08T11:35:19.786Z,26.7
2018-12-08T11:36:09.763Z,27.4
2018-12-08T11:37:01.271Z,26.8
2018-12-08T11:37:50.265Z,26.4
2018-12-08T11:38:40.143Z,26.3
2018-12-08T11:39:30.791Z,26.2
2018-12-08T11:40:20.486Z,26.3
2018-12-08T11:41:09.840Z,26.6
2018-12-08T11:41:59.315Z,26.8
2018-12-08T11:42:49.963Z,27.1
2018-12-08T11:43:40.716Z,27.2
2018-12-08T11:44:30.703Z,27.4
2018-12-08T11:45:20.678Z,27.4
2018-12-08T11:46:09.780Z,27.6
2018-12-08T11:47:00.623Z,27.7
2018-12-08T11:48:39.248Z,27.9
2018-12-08T11:49:30.088Z,28
2018-12-08T11:50:20.418Z,28.1
2018-12-08T11:51:10.680Z,28.1
2018-12-08T11:52:00.820Z,28.2
2018-12-08T11:52:50.325Z,28.3
2018-12-08T11:53:40.055Z,28.4
2018-12-08T11:54:30.250Z,28.4
2018-12-08T11:55:21.181Z,28.4
2018-12-08T11:56:10.900Z,28.4
2018-12-08T11:57:01.162Z,28.4
2018-12-08T11:57:51.210Z,28.5
2018-12-08T11:58:41.445Z,28.6
2018-12-08T11:59:31.846Z,28.7
2018-12-08T12:00:21.287Z,28.8
2018-12-08T12:01:11.860Z,28.8
2018-12-08T12:02:01.657Z,28.8
2018-12-08T12:02:51.824Z,28.8
2018-12-08T12:03:41.506Z,28.4
2018-12-08T12:05:21.584Z,27.4
2018-12-08T12:06:11.904Z,27.2
2018-12-08T12:07:01.684Z,27
2018-12-08T12:07:51.826Z,26.9
2018-12-08T12:08:41.584Z,26.9
2018-12-08T12:09:31.959Z,26.8
2018-12-08T12:10:22.729Z,26.8
2018-12-08T12:11:12.255Z,26.8
2018-12-08T12:12:02.294Z,26.6
2018-12-08T12:12:51.926Z,26.3